Track Макаров Николай

Time Latitude Longitude Accuracy (66% radius in meters) Altitude (meters) Speed (km/hour) Bearing (degrees) Battery (%) GPS flag
07:44:22 58.655547 49.680407 0 0 0 0 1 delete
07:44:21 58.655560 49.680383 0 0 0 0 1 delete
07:44:20 58.655584 49.680331 0 0 0 0 1 delete
07:44:19 58.655620 49.680241 0 0 0 0 1 delete
07:44:18 58.655662 49.680135 0 0 0 0 1 delete
07:44:17 58.655700 49.680022 0 0 0 0 1 delete
07:44:16 58.655730 49.679907 0 0 0 0 1 delete
07:44:15 58.655762 49.679806 0 0 0 0 1 delete
07:44:14 58.655792 49.679702 0 0 0 0 1 delete
07:44:13 58.655817 49.679604 0 0 0 0 1 delete
07:44:12 58.655845 49.679500 0 0 0 0 1 delete
07:44:11 58.655856 49.679388 0 0 0 0 1 delete
07:44:10 58.655835 49.679289 0 0 0 0 1 delete
07:44:09 58.655785 49.679221 0 0 0 0 1 delete
07:44:08 58.655736 49.679157 0 0 0 0 1 delete
07:44:07 58.655690 49.679097 0 0 0 0 1 delete
07:44:06 58.655641 49.679039 0 0 0 0 1 delete
07:44:05 58.655595 49.678981 0 0 0 0 1 delete
07:44:04 58.655548 49.678928 0 0 0 0 1 delete
07:44:03 58.655501 49.678885 0 0 0 0 1 delete
07:44:02 58.655453 49.678858 0 0 0 0 1 delete
07:44:01 58.655407 49.678861 0 0 0 0 1 delete
07:44:00 58.655358 49.678882 0 0 0 0 1 delete
07:43:59 58.655321 49.678911 0 0 0 0 1 delete
07:43:58 58.655284 49.678947 0 0 0 0 1 delete
07:43:57 58.655251 49.678980 0 0 0 0 1 delete
07:43:56 58.655220 49.679001 0 0 0 0 1 delete
07:43:55 58.655195 49.679000 0 0 0 0 1 delete
07:43:53 58.655167 49.678965 0 0 0 0 1 delete
07:43:41 58.655146 49.678922 0 0 0 0 1 delete
07:43:39 58.655147 49.678972 0 0 0 0 1 delete
07:43:38 58.655128 49.679017 0 0 0 0 1 delete
07:43:37 58.655090 49.679062 0 0 0 0 1 delete
07:43:36 58.655047 49.679117 0 0 0 0 1 delete
07:43:35 58.654997 49.679170 0 0 0 0 1 delete
07:43:34 58.654948 49.679233 0 0 0 0 1 delete
07:43:33 58.654896 49.679303 0 0 0 0 1 delete
07:43:32 58.654844 49.679362 0 0 0 0 1 delete
07:43:31 58.654790 49.679378 0 0 0 0 1 delete
07:43:30 58.654735 49.679345 0 0 0 0 1 delete
07:43:29 58.654692 49.679294 0 0 0 0 1 delete
07:43:28 58.654650 49.679239 0 0 0 0 1 delete
07:43:27 58.654609 49.679189 0 0 0 0 1 delete
07:43:26 58.654575 49.679151 0 0 0 0 1 delete
07:43:25 58.654538 49.679125 0 0 0 0 1 delete
07:43:24 58.654502 49.679132 0 0 0 0 1 delete
07:43:23 58.654466 49.679153 0 0 0 0 1 delete
07:43:22 58.654428 49.679198 0 0 0 0 1 delete
07:43:21 58.654392 49.679243 0 0 0 0 1 delete
07:43:20 58.654364 49.679296 0 0 0 0 1 delete